首页
METAR-TAF:

METAR-TAF

机场 :

查尔斯顿, 南卡罗来纳州, 美国

纬度: 32-42-03N, 经度: 080-00-10W, 海拔: 5米

当前天气观测

该预报发布于27分钟前的10:55 UTC
静风
温度 9°C
湿度 87%
气压 1017 hPa
能見度: 12.9公里
天空无云

METAR: KJZI 211055Z AUTO 00000KT 8SM CLR 09/07 A3002 RMK AO2

时间: 07:22 (11:22 UTC)


TAF: 丢失

超过4000个机场的气象观测和天气预报(METAR&TAF报告)。

可查询的气象台以黄色和红色小点在地图上表示。

将鼠标移到小点上方,可查看气象台名称。

然后点击查看天气观测和预报。

如需切换地图:点击带黑十字的绿色按钮放大地图;点击带横线的绿色按钮缩小地图;或者点击绿色箭头查看邻近地区的地图。


METAR-TAF: